Welcome to Northern Hawkes Bay. New Zealand.
PWS Header
      nz Flag



Hit Counter


W3C Valid W3C Valid logo


    Wairoa

Select any of the Stations below to visit their websites.










Historic Data from Weather Underground
Select the location of interest below. Wairoa is the default. Please have patience, this Data is slow to load in.
Northern Hawkes Bay Historical Data
Daily Summary for June 19, 2017 Units:  English    Metric   Both
« Previous Day
Next Day »
Daily Weekly Monthly Yearly Custom
  High: Low: Average:
Temperature: 64.9 °F 45 °F 53.2 °F
Dew Point: 54.7 °F 44.2 °F 48.6 °F
Humidity: 99% 58% 85%
Wind Speed: 10.7mph 0mph 4.2mph
Wind Gust: 17.4mph - -
Wind- - WNW
Pressure: 30.4 in 30.3 in -
Precipitation: 0 in    
Historical Graphs
 
 
Tabular Data for June 19, 2017
Time Temperature Dew Point Pressure Wind Wind Speed Wind Gust Humidity Rainfall Rate (Hourly) solar
00:01 49.6 °F 47.1 °F 30.4 in NNW 3.1 mph 6 mph 91% 0 in 0 W/m2
00:06 49.5 °F 46.9 °F 30.4 in NNW 3.8 mph 6 mph 91% 0 in 0 W/m2
00:11 49.8 °F 47.3 °F 30.4 in NNW 2.2 mph 6 mph 91% 0 in 0 W/m2
00:16 49.8 °F 47.3 °F 30.4 in NNW 4.5 mph 6 mph 91% 0 in 0 W/m2
00:21 49.6 °F 47.1 °F 30.4 in NNW 3.1 mph 6 mph 91% 0 in 0 W/m2
00:26 49.6 °F 47.1 °F 30.4 in NNW 3.1 mph 6 mph 91% 0 in 0 W/m2
00:31 49.5 °F 46.9 °F 30.4 in NNW 3.8 mph 6 mph 91% 0 in 0 W/m2
00:36 49.3 °F 46.8 °F 30.4 in North 3.1 mph 6.9 mph 91% 0 in 0 W/m2
00:45 49.3 °F 46.8 °F 30.4 in NNW 1.6 mph 6 mph 91% 0 in 0 W/m2
00:50 48.9 °F 46.4 °F 30.4 in NW 1.6 mph 4.5 mph 91% 0 in 0 W/m2
00:55 48.7 °F 46.2 °F 30.4 in WNW 1.6 mph 3.1 mph 91% 0 in 0 W/m2
01:00 48.6 °F 46 °F 30.4 in West 2.2 mph 3.1 mph 91% 0 in 0 W/m2
01:05 48.4 °F 46.2 °F 30.4 in West 1.6 mph 3.8 mph 92% 0 in 0 W/m2
01:10 48.4 °F 46.2 °F 30.4 in WNW 1.6 mph 3.8 mph 92% 0 in 0 W/m2
01:15 48.4 °F 46.2 °F 30.4 in WNW 0.7 mph 3.1 mph 92% 0 in 0 W/m2
01:20 48.2 °F 46 °F 30.4 in WNW 1.6 mph 3.1 mph 92% 0 in 0 W/m2
01:25 48 °F 46 °F 30.4 in NW 0.7 mph 3.1 mph 93% 0 in 0 W/m2
01:30 47.7 °F 46 °F 30.4 in NW 1.6 mph 3.1 mph 94% 0 in 0 W/m2
01:35 47.5 °F 45.9 °F 30.4 in WNW 2.2 mph 3.8 mph 94% 0 in 0 W/m2
01:40 47.5 °F 45.9 °F 30.4 in WNW 2.2 mph 3.8 mph 94% 0 in 0 W/m2
01:45 47.5 °F 46 °F 30.4 in WNW 2.2 mph 4.5 mph 95% 0 in 0 W/m2
01:50 47.7 °F 46.2 °F 30.4 in NW 2.2 mph 4.5 mph 95% 0 in 0 W/m2
01:55 47.8 °F 46.6 °F 30.4 in NW 2.2 mph 4.5 mph 95% 0 in 0 W/m2
02:00 47.8 °F 46.6 °F 30.4 in NW 2.2 mph 4.5 mph 95% 0 in 0 W/m2
02:05 47.7 °F 46.2 °F 30.4 in NW 3.8 mph 4.5 mph 95% 0 in 0 W/m2
02:11 47.7 °F 46.2 °F 30.4 in NW 2.2 mph 4.5 mph 95% 0 in 0 W/m2
02:15 48 °F 46.8 °F 30.4 in NW 3.1 mph 4.5 mph 95% 0 in 0 W/m2
02:20 48.6 °F 46.9 °F 30.4 in NNW 4.5 mph 6.9 mph 94% 0 in 0 W/m2
02:25 49.8 °F 48.2 °F 30.4 in NNW 4.5 mph 8.3 mph 94% 0 in 0 W/m2
02:31 50.7 °F 48.6 °F 30.4 in NNW 3.8 mph 8.3 mph 92% 0 in 0 W/m2
02:35 50.9 °F 48 °F 30.4 in NNW 2.2 mph 9.8 mph 90% 0 in 0 W/m2
02:40 50.7 °F 47.3 °F 30.4 in NNW 3.1 mph 9.8 mph 88% 0 in 0 W/m2
02:46 49.6 °F 46.2 °F 30.4 in NW 3.1 mph 8.3 mph 88% 0 in 0 W/m2
02:50 48.9 °F 45.9 °F 30.4 in WNW 3.1 mph 4.5 mph 89% 0 in 0 W/m2
02:55 48.4 °F 45.3 °F 30.4 in WNW 2.2 mph 4.5 mph 89% 0 in 0 W/m2
03:00 48 °F 45.5 °F 30.3 in WNW 2.2 mph 3.8 mph 91% 0 in 0 W/m2
03:05 47.8 °F 45.7 °F 30.3 in WNW 1.6 mph 3.8 mph 92% 0 in 0 W/m2
03:10 47.5 °F 45.7 °F 30.3 in West 1.6 mph 3.8 mph 93% 0 in 0 W/m2
03:15 47.3 °F 45.7 °F 30.3 in West 0.7 mph 2.2 mph 94% 0 in 0 W/m2
03:20 47.3 °F 45.7 °F 30.3 in West 2.2 mph 3.1 mph 94% 0 in 0 W/m2
03:25 47.3 °F 45.9 °F 30.3 in NW 3.1 mph 4.5 mph 95% 0 in 0 W/m2
03:30 47.3 °F 45.9 °F 30.3 in NW 2.2 mph 4.5 mph 95% 0 in 0 W/m2
03:35 47.1 °F 45.9 °F 30.3 in NW 3.1 mph 4.5 mph 95% 0 in 0 W/m2
03:40 46.9 °F 45.7 °F 30.3 in NW 3.1 mph 4.5 mph 95% 0 in 0 W/m2
03:45 46.8 °F 45.3 °F 30.3 in NW 3.1 mph 4.5 mph 95% 0 in 0 W/m2
03:50 46.8 °F 45.7 °F 30.3 in NW 3.8 mph 5.4 mph 96% 0 in 0 W/m2
04:15 46.4 °F 45.3 °F 30.3 in NW 3.8 mph 6 mph 96% 0 in 0 W/m2
04:20 46.2 °F 45.3 °F 30.3 in NW 3.1 mph 6 mph 97% 0 in 0 W/m2
04:25 46.2 °F 45.3 °F 30.3 in NNW 3.8 mph 6 mph 97% 0 in 0 W/m2
04:30 46.2 °F 45.3 °F 30.3 in NNW 3.8 mph 6 mph 97% 0 in 0 W/m2
04:35 46 °F 45.1 °F 30.3 in NW 2.2 mph 6 mph 97% 0 in 0 W/m2
04:40 46 °F 45.1 °F 30.3 in NW 2.2 mph 5.4 mph 97% 0 in 0 W/m2
04:45 45.9 °F 45.1 °F 30.3 in NW 2.2 mph 4.5 mph 97% 0 in 0 W/m2
04:50 45.7 °F 45 °F 30.3 in NW 2.2 mph 4.5 mph 97% 0 in 0 W/m2
04:55 45.7 °F 45 °F 30.3 in NW 3.1 mph 4.5 mph 97% 0 in 0 W/m2
05:00 45.5 °F 44.8 °F 30.3 in NW 2.2 mph 4.5 mph 97% 0 in 0 W/m2
05:05 45.5 °F 44.8 °F 30.3 in NW 3.1 mph 4.5 mph 97% 0 in 0 W/m2
05:10 45.3 °F 44.4 °F 30.3 in NW 2.2 mph 4.5 mph 97% 0 in 0 W/m2
05:15 45.3 °F 44.4 °F 30.3 in NW 3.1 mph 4.5 mph 97% 0 in 0 W/m2
05:20 45.3 °F 44.4 °F 30.3 in NW 2.2 mph 4.5 mph 97% 0 in 0 W/m2
05:25 45.1 °F 44.2 °F 30.3 in NW 3.8 mph 4.5 mph 97% 0 in 0 W/m2
05:30 45.1 °F 44.2 °F 30.3 in NW 2.2 mph 4.5 mph 97% 0 in 0 W/m2
05:35 45 °F 44.2 °F 30.3 in NW 2.2 mph 5.4 mph 97% 0 in 0 W/m2
05:41 45 °F 44.2 °F 30.3 in NW 2.2 mph 5.4 mph 97% 0 in 0 W/m2
05:46 45 °F 44.2 °F 30.3 in NNW 3.1 mph 6 mph 97% 0 in 0 W/m2
05:51 45 °F 44.2 °F 30.3 in NNW 3.1 mph 6 mph 97% 0 in 0 W/m2
05:56 45 °F 44.2 °F 30.3 in NNW 1.6 mph 5.4 mph 97% 0 in 0 W/m2
06:01 45.1 °F 44.2 °F 30.3 in NNW 3.1 mph 6 mph 97% 0 in 0 W/m2
06:06 45.3 °F 44.4 °F 30.3 in NNW 4.5 mph 6.9 mph 97% 0 in 0 W/m2
06:11 45.5 °F 44.8 °F 30.3 in NW 5.4 mph 6.9 mph 97% 0 in 0 W/m2
06:16 45.5 °F 44.8 °F 30.3 in NW 3.8 mph 6.9 mph 97% 0 in 0 W/m2
06:21 45.5 °F 44.8 °F 30.3 in NW 3.8 mph 6.9 mph 97% 0 in 0 W/m2
06:26 45.7 °F 45 °F 30.3 in NNW 3.8 mph 7.6 mph 97% 0 in 0 W/m2
06:31 45.7 °F 45 °F 30.3 in NW 3.8 mph 7.6 mph 97% 0 in 0 W/m2
06:36 45.5 °F 44.8 °F 30.3 in NW 3.8 mph 6 mph 97% 0 in 0 W/m2
06:41 45.1 °F 44.2 °F 30.3 in NW 4.5 mph 6.9 mph 97% 0 in 0 W/m2
06:46 45 °F 44.2 °F 30.3 in NW 4.5 mph 8.3 mph 97% 0 in 0 W/m2
06:51 45 °F 44.2 °F 30.3 in NW 6 mph 8.3 mph 97% 0 in 0 W/m2
06:56 45 °F 44.2 °F 30.3 in NW 5.4 mph 9.2 mph 97% 0 in 0 W/m2
07:01 45 °F 44.2 °F 30.3 in NW 5.4 mph 9.2 mph 97% 0 in 0 W/m2
07:06 45 °F 44.2 °F 30.3 in NW 5.4 mph 8.3 mph 97% 0 in 0 W/m2
07:11 45.1 °F 44.2 °F 30.3 in NW 4.5 mph 9.2 mph 97% 0 in 0 W/m2
07:17 45.1 °F 44.2 °F 30.3 in NW 5.4 mph 9.2 mph 97% 0 in 0 W/m2
07:22 45.3 °F 44.4 °F 30.3 in NNW 6 mph 9.8 mph 97% 0 in 0 W/m2
07:27 45.3 °F 44.4 °F 30.3 in NNW 5.4 mph 9.8 mph 97% 0 in 0 W/m2
07:32 45.5 °F 44.8 °F 30.3 in NNW 4.5 mph 10.7 mph 97% 0 in 0 W/m2
07:37 45.5 °F 44.8 °F 30.3 in NNW 4.5 mph 10.7 mph 97% 0 in 1 W/m2
07:42 45.7 °F 45 °F 30.3 in NNW 6.9 mph 9.2 mph 97% 0 in 6 W/m2
07:47 45.9 °F 45.1 °F 30.3 in NNW 6 mph 9.2 mph 97% 0 in 16 W/m2
07:52 46 °F 45.1 °F 30.3 in NNW 6 mph 9.2 mph 97% 0 in 12 W/m2
07:57 46 °F 45.1 °F 30.3 in NNW 5.4 mph 9.2 mph 97% 0 in 16 W/m2
08:02 45.9 °F 45.1 °F 30.3 in NNW 6 mph 9.2 mph 97% 0 in 16 W/m2
08:07 45.7 °F 45 °F 30.3 in NW 5.4 mph 8.3 mph 97% 0 in 22 W/m2
08:12 45.7 °F 45 °F 30.3 in NW 6 mph 8.3 mph 97% 0 in 25 W/m2
08:17 45.9 °F 45.1 °F 30.3 in NNW 5.4 mph 10.7 mph 97% 0 in 28 W/m2
08:22 45.9 °F 45.1 °F 30.3 in NNW 4.5 mph 10.7 mph 97% 0 in 32 W/m2
08:27 46 °F 45.1 °F 30.3 in NNW 5.4 mph 9.2 mph 97% 0 in 41 W/m2
08:32 46.4 °F 45.7 °F 30.3 in NW 5.4 mph 9.2 mph 97% 0 in 46 W/m2
08:37 46.9 °F 46 °F 30.3 in NW 4.5 mph 9.2 mph 97% 0 in 69 W/m2
08:42 47.3 °F 46.6 °F 30.3 in NNW 3.8 mph 9.2 mph 97% 0 in 80 W/m2
08:47 47.8 °F 46.8 °F 30.3 in NNW 4.5 mph 9.2 mph 96% 0 in 85 W/m2
08:52 48.2 °F 46.8 °F 30.3 in NNW 5.4 mph 9.2 mph 95% 0 in 88 W/m2
08:57 48.4 °F 46.8 °F 30.3 in NNW 5.4 mph 9.8 mph 94% 0 in 67 W/m2
09:02 48.6 °F 46.6 °F 30.3 in North 3.8 mph 9.8 mph 93% 0 in 59 W/m2
09:07 48.6 °F 46.6 °F 30.3 in NNW 5.4 mph 8.3 mph 93% 0 in 65 W/m2
09:12 48.7 °F 46.8 °F 30.3 in NNW 7.6 mph 9.8 mph 93% 0 in 70 W/m2
09:17 48.9 °F 46.9 °F 30.3 in NNW 4.5 mph 9.8 mph 93% 0 in 73 W/m2
09:22 49.1 °F 47.1 °F 30.3 in NNW 5.4 mph 9.8 mph 93% 0 in 94 W/m2
09:27 49.5 °F 47.5 °F 30.3 in NNW 4.5 mph 7.6 mph 93% 0 in 110 W/m2
09:32 49.8 °F 47.7 °F 30.3 in NNW 3.1 mph 7.6 mph 92% 0 in 142 W/m2
09:37 51.1 °F 48.6 °F 30.3 in North 3.8 mph 7.6 mph 91% 0 in 210 W/m2
09:42 52 °F 48.7 °F 30.3 in NNW 4.5 mph 7.6 mph 89% 0 in 218 W/m2
09:47 52.9 °F 49.1 °F 30.3 in NW 6.9 mph 8.3 mph 87% 0 in 163 W/m2
09:52 53.4 °F 48.9 °F 30.4 in NNW 4.5 mph 9.2 mph 85% 0 in 148 W/m2
09:57 54 °F 48.9 °F 30.3 in NNW 6 mph 9.8 mph 83% 0 in 104 W/m2
10:02 54 °F 48.9 °F 30.3 in NNW 5.4 mph 10.7 mph 83% 0 in 118 W/m2
10:07 54.3 °F 49.3 °F 30.3 in NNW 4.5 mph 10.7 mph 83% 0 in 124 W/m2
10:12 54.5 °F 49.1 °F 30.4 in North 4.5 mph 8.3 mph 82% 0 in 110 W/m2
10:17 54.9 °F 49.5 °F 30.4 in North 4.5 mph 9.8 mph 82% 0 in 106 W/m2
10:22 55.4 °F 50 °F 30.3 in NNW 4.5 mph 9.8 mph 82% 0 in 100 W/m2
10:27 56.5 °F 50.4 °F 30.3 in NNW 3.8 mph 9.8 mph 80% 0 in 93 W/m2
10:32 57 °F 50.5 °F 30.4 in North 4.5 mph 9.8 mph 79% 0 in 86 W/m2
10:37 57.4 °F 50.2 °F 30.3 in NNW 3.8 mph 9.2 mph 77% 0 in 88 W/m2
10:42 58.1 °F 50.9 °F 30.4 in NNW 6 mph 9.2 mph 77% 0 in 88 W/m2
10:47 58.5 °F 50.9 °F 30.3 in NNW 6 mph 10.7 mph 76% 0 in 91 W/m2
10:52 59 °F 50.7 °F 30.3 in North 4.5 mph 10.7 mph 74% 0 in 88 W/m2
10:57 59.4 °F 51.1 °F 30.3 in North 4.5 mph 10.7 mph 74% 0 in 84 W/m2
11:02 59.4 °F 50.7 °F 30.3 in North 6.9 mph 11.4 mph 73% 0 in 84 W/m2
11:07 59.5 °F 50.9 °F 30.3 in North 6 mph 13.6 mph 73% 0 in 80 W/m2
11:12 60.1 °F 51.4 °F 30.3 in NNW 6.9 mph 13.6 mph 73% 0 in 83 W/m2
11:17 60.4 °F 51.4 °F 30.3 in NNW 3.1 mph 9.8 mph 72% 0 in 83 W/m2
11:22 60.8 °F 51.4 °F 30.3 in NNW 3.8 mph 9.2 mph 71% 0 in 82 W/m2
11:27 61.3 °F 51.4 °F 30.3 in North 6 mph 9.2 mph 70% 0 in 84 W/m2
11:32 61.7 °F 51.4 °F 30.3 in North 6.9 mph 10.7 mph 69% 0 in 89 W/m2
11:37 61.9 °F 51.3 °F 30.3 in NNW 7.6 mph 12.1 mph 68% 0 in 91 W/m2
11:42 62.1 °F 51.4 °F 30.3 in NNW 8.3 mph 12.1 mph 68% 0 in 97 W/m2
11:47 62.6 °F 51.1 °F 30.3 in NNW 6 mph 12.1 mph 66% 0 in 100 W/m2
11:52 63.3 °F 51.1 °F 30.3 in North 5.4 mph 11.4 mph 64% 0 in 101 W/m2
11:57 63.3 °F 51.1 °F 30.3 in North 6.9 mph 11.4 mph 64% 0 in 92 W/m2
12:02 63.5 °F 50.4 °F 30.3 in NNW 9.8 mph 13 mph 62% 0 in 89 W/m2
12:07 63.5 °F 50.4 °F 30.3 in NW 4.5 mph 13 mph 62% 0 in 91 W/m2
12:12 64.4 °F 50.7 °F 30.3 in NW 4.5 mph 13 mph 61% 0 in 90 W/m2
12:17 64.4 °F 49.8 °F 30.3 in NW 6.9 mph 13.6 mph 59% 0 in 92 W/m2
12:22 64 °F 49.8 °F 30.3 in NW 6 mph 13.6 mph 60% 0 in 89 W/m2
12:27 64.8 °F 51.1 °F 30.3 in NW 6 mph 12.1 mph 61% 0 in 92 W/m2
12:32 64.4 °F 49.8 °F 30.3 in NNW 9.8 mph 14.5 mph 59% 0 in 87 W/m2
12:37 64.2 °F 50.2 °F 30.3 in NW 5.4 mph 14.5 mph 60% 0 in 88 W/m2
12:42 64.2 °F 50.2 °F 30.3 in NW 6.9 mph 13.6 mph 60% 0 in 87 W/m2
12:47 64.4 °F 49.8 °F 30.3 in NW 3.8 mph 13 mph 59% 0 in 87 W/m2
12:52 64.8 °F 49.6 °F 30.3 in NW 6.9 mph 11.4 mph 58% 0 in 91 W/m2
12:57 64.6 °F 49.8 °F 30.3 in NW 4.5 mph 12.1 mph 59% 0 in 89 W/m2
13:02 64.8 °F 49.6 °F 30.3 in NW 5.4 mph 12.1 mph 58% 0 in 88 W/m2
13:07 64.8 °F 49.6 °F 30.3 in NW 4.5 mph 13 mph 58% 0 in 89 W/m2
13:12 64.9 °F 50.4 °F 30.3 in WNW 5.4 mph 13 mph 59% 0 in 94 W/m2
13:17 64.9 °F 50.4 °F 30.3 in WNW 6.9 mph 10.7 mph 59% 0 in 101 W/m2
13:22 64.4 °F 49.3 °F 30.3 in NW 5.4 mph 11.4 mph 58% 0 in 112 W/m2
13:27 64.4 °F 49.8 °F 30.3 in NW 9.2 mph 11.4 mph 59% 0 in 116 W/m2
13:32 63.9 °F 49.3 °F 30.3 in NW 8.3 mph 13.6 mph 59% 0 in 132 W/m2
13:37 64 °F 49.5 °F 30.3 in NW 8.3 mph 13.6 mph 59% 0 in 137 W/m2
13:42 64.4 °F 49.8 °F 30.3 in NW 7.6 mph 12.1 mph 59% 0 in 141 W/m2
13:47 64.2 °F 50.5 °F 30.3 in NW 6.9 mph 11.4 mph 61% 0 in 128 W/m2
13:52 63.3 °F 49.3 °F 30.3 in NW 4.5 mph 11.4 mph 60% 0 in 132 W/m2
13:57 63 °F 49.3 °F 30.3 in NW 6 mph 10.7 mph 61% 0 in 145 W/m2
14:02 63.1 °F 49.5 °F 30.3 in NW 5.4 mph 9.2 mph 61% 0 in 135 W/m2
14:07 63 °F 49.3 °F 30.3 in NW 3.8 mph 9.8 mph 61% 0 in 136 W/m2
14:12 63 °F 49.3 °F 30.3 in NW 3.8 mph 11.4 mph 61% 0 in 165 W/m2
14:17 63.3 °F 49.3 °F 30.3 in WNW 4.5 mph 11.4 mph 60% 0 in 145 W/m2
14:22 63 °F 48.9 °F 30.3 in WNW 6 mph 10.7 mph 60% 0 in 124 W/m2
14:27 62.6 °F 48.6 °F 30.3 in NW 6.9 mph 9.2 mph 60% 0 in 119 W/m2
14:45 62.8 °F 49.1 °F 30.3 in NW 4.5 mph 8.3 mph 61% 0 in 170 W/m2
14:50 63.9 °F 50.5 °F 30.3 in NW 3.8 mph 8.3 mph 62% 0 in 211 W/m2
14:55 64.2 °F 50.2 °F 30.3 in NW 4.5 mph 8.3 mph 60% 0 in 170 W/m2
15:00 64.2 °F 50.2 °F 30.3 in NW 5.4 mph 9.2 mph 60% 0 in 116 W/m2
15:04 63 °F 49.3 °F 30.3 in NW 4.5 mph 9.2 mph 61% 0 in 80 W/m2
15:10 62.6 °F 49.5 °F 30.3 in NW 4.5 mph 6.9 mph 62% 0 in 78 W/m2
15:15 62.2 °F 49.5 °F 30.3 in NNW 3.1 mph 6.9 mph 63% 0 in 76 W/m2
15:20 62.2 °F 49.8 °F 30.3 in NNW 2.2 mph 6.9 mph 64% 0 in 68 W/m2
15:25 62.1 °F 49.8 °F 30.3 in NNW 1.6 mph 5.4 mph 64% 0 in 65 W/m2
15:30 62.1 °F 49.8 °F 30.3 in NW 0.7 mph 5.4 mph 64% 0 in 58 W/m2
15:35 62.2 °F 50.4 °F 30.3 in NW 0.7 mph 3.8 mph 65% 0 in 58 W/m2
15:40 62.8 °F 50.4 °F 30.3 in Calm   2.2 mph 64% 0 in 70 W/m2
15:45 64.8 °F 52.3 °F 30.3 in North 1.6 mph 3.1 mph 64% 0 in 75 W/m2
15:50 64.8 °F 51.4 °F 30.3 in NW 1.6 mph 3.1 mph 62% 0 in 74 W/m2
15:55 64.2 °F 50.5 °F 30.3 in NW 2.2 mph 3.8 mph 61% 0 in 66 W/m2
16:00 63.7 °F 50.4 °F 30.3 in NW 1.6 mph 3.8 mph 62% 0 in 36 W/m2
16:05 63.3 °F 50.5 °F 30.3 in NW 1.6 mph 3.8 mph 63% 0 in 43 W/m2
16:10 62.8 °F 50 °F 30.3 in NNW 0.7 mph 3.1 mph 63% 0 in 32 W/m2
16:15 62.2 °F 50.4 °F 30.3 in NNW 0.7 mph 3.1 mph 65% 0 in 18 W/m2
16:20 61.3 °F 49.8 °F 30.3 in NNW 1.6 mph 2.2 mph 66% 0 in 13 W/m2
16:25 60.3 °F 50.2 °F 30.3 in Calm   2.2 mph 69% 0 in 10 W/m2
16:30 59.5 °F 50.2 °F 30.3 in Calm   2.2 mph 71% 0 in 7 W/m2
16:35 58.8 °F 50.2 °F 30.3 in NW 0.7 mph 1.6 mph 73% 0 in 5 W/m2
16:40 58.1 °F 50.2 °F 30.3 in NW 0.7 mph 2.2 mph 75% 0 in 3 W/m2
16:45 57.4 °F 49.8 °F 30.3 in NW 0.7 mph 2.2 mph 76% 0 in 1 W/m2
16:50 56.8 °F 50.4 °F 30.3 in NNW 1.6 mph 2.2 mph 79% 0 in 0 W/m2
16:55 56.7 °F 50.5 °F 30.3 in NW 0.7 mph 2.2 mph 80% 0 in 0 W/m2
17:00 56.1 °F 50.4 °F 30.3 in NNW 0.7 mph 2.2 mph 81% 0 in 0 W/m2
17:05 55.4 °F 50 °F 30.3 in North 0.7 mph 2.2 mph 82% 0 in 0 W/m2
17:10 54.7 °F 49.6 °F 30.3 in North 0.7 mph 2.2 mph 83% 0 in 0 W/m2
17:15 54.1 °F 49.5 °F 30.3 in Calm   2.2 mph 84% 0 in 0 W/m2
17:20 53.8 °F 49.1 °F 30.3 in Calm   2.2 mph 84% 0 in 0 W/m2
17:25 53.2 °F 49.3 °F 30.3 in NNE 0.7 mph 1.6 mph 86% 0 in 0 W/m2
17:30 52.9 °F 49.1 °F 30.3 in NNE 1.6 mph 2.2 mph 87% 0 in 0 W/m2
17:35 52.7 °F 49.3 °F 30.3 in NNE 1.6 mph 2.2 mph 88% 0 in 0 W/m2
17:40 52.3 °F 49.3 °F 30.3 in North 1.6 mph 2.2 mph 89% 0 in 0 W/m2
17:45 52.3 °F 49.5 °F 30.4 in North 0.7 mph 2.2 mph 90% 0 in 0 W/m2
17:50 52.3 °F 49.5 °F 30.4 in Calm   2.2 mph 90% 0 in 0 W/m2
17:55 52 °F 49.5 °F 30.4 in NNE 0.7 mph 2.2 mph 91% 0 in 0 W/m2
18:00 51.8 °F 49.3 °F 30.4 in Calm   2.2 mph 91% 0 in 0 W/m2
18:17 51.3 °F 49.3 °F 30.4 in Calm   2.2 mph 93% 0 in 0 W/m2
18:22 51.1 °F 49.1 °F 30.4 in NNE 0.7 mph 2.2 mph 93% 0 in 0 W/m2
18:27 51.1 °F 49.5 °F 30.4 in NNE 1.6 mph 2.2 mph 94% 0 in 0 W/m2
18:32 50.9 °F 49.3 °F 30.4 in Calm   2.2 mph 94% 0 in 0 W/m2
18:37 50.5 °F 48.9 °F 30.4 in NNW 1.6 mph 2.2 mph 94% 0 in 0 W/m2
18:42 50.4 °F 48.7 °F 30.4 in North 1.6 mph 2.2 mph 94% 0 in 0 W/m2
18:47 50.2 °F 48.7 °F 30.4 in North 1.6 mph 3.1 mph 95% 0 in 0 W/m2
18:52 50 °F 48.6 °F 30.4 in North 1.6 mph 3.1 mph 95% 0 in 0 W/m2
18:57 49.8 °F 48.9 °F 30.4 in North 0.7 mph 3.1 mph 97% 0 in 0 W/m2
19:02 49.6 °F 49.1 °F 30.4 in NNW 1.6 mph 3.1 mph 98% 0 in 0 W/m2
19:07 49.6 °F 49.1 °F 30.4 in NNW 1.6 mph 3.1 mph 98% 0 in 0 W/m2
19:12 49.5 °F 49.3 °F 30.4 in North 1.6 mph 3.1 mph 99% 0 in 0 W/m2
19:17 48.9 °F 48.7 °F 30.4 in North 0.7 mph 3.1 mph 99% 0 in 0 W/m2
19:22 48.9 °F 48.7 °F 30.4 in NNW 1.6 mph 2.2 mph 99% 0 in 0 W/m2
19:27 48.6 °F 48.4 °F 30.4 in North 1.6 mph 2.2 mph 99% 0 in 0 W/m2
19:32 48.4 °F 48 °F 30.4 in NNE 1.6 mph 2.2 mph 99% 0 in 0 W/m2
19:37 48.6 °F 48.4 °F 30.4 in North 0.7 mph 2.2 mph 99% 0 in 0 W/m2
19:42 48.9 °F 48.7 °F 30.4 in North 1.6 mph 2.2 mph 99% 0 in 0 W/m2
19:47 48.9 °F 48.7 °F 30.4 in North 2.2 mph 3.1 mph 99% 0 in 0 W/m2
19:52 50 °F 49.6 °F 30.4 in NNW 3.1 mph 6.9 mph 99% 0 in 0 W/m2
19:58 52.5 °F 52 °F 30.4 in SW 5.4 mph 11.4 mph 98% 0 in 0 W/m2
20:03 54.3 °F 53.4 °F 30.4 in SSW 5.4 mph 12.1 mph 97% 0 in 0 W/m2
20:08 55 °F 54.1 °F 30.4 in South 7.6 mph 12.1 mph 97% 0 in 0 W/m2
20:13 55.4 °F 54.7 °F 30.4 in South 6 mph 13 mph 97% 0 in 0 W/m2
20:18 55.6 °F 54.1 °F 30.4 in South 5.4 mph 13 mph 95% 0 in 0 W/m2
20:23 55.4 °F 53.8 °F 30.4 in South 4.5 mph 11.4 mph 94% 0 in 0 W/m2
20:28 55.4 °F 53.1 °F 30.4 in South 9.8 mph 13.6 mph 92% 0 in 0 W/m2
20:33 55.4 °F 52.9 °F 30.4 in SSW 8.3 mph 13.6 mph 91% 0 in 0 W/m2
20:38 55.4 °F 52.9 °F 30.4 in SSW 5.4 mph 13.6 mph 91% 0 in 0 W/m2
20:43 55 °F 52.5 °F 30.4 in SSW 8.3 mph 15.2 mph 91% 0 in 0 W/m2
20:48 55.2 °F 52.3 °F 30.4 in SSW 9.2 mph 17.4 mph 90% 0 in 0 W/m2
20:53 55.2 °F 52 °F 30.4 in South 6 mph 17.4 mph 89% 0 in 0 W/m2
20:58 55.2 °F 52.3 °F 30.4 in South 9.2 mph 17.4 mph 90% 0 in 0 W/m2
21:03 55.2 °F 52.5 °F 30.4 in SSW 8.3 mph 14.5 mph 91% 0 in 0 W/m2
21:08 55.4 °F 52.5 °F 30.4 in SSW 6 mph 14.5 mph 90% 0 in 0 W/m2
21:13 55.4 °F 52.5 °F 30.4 in SSW 6.9 mph 13.6 mph 90% 0 in 0 W/m2
21:18 55.4 °F 52.9 °F 30.4 in SSW 6 mph 11.4 mph 91% 0 in 0 W/m2
21:23 55.2 °F 52.9 °F 30.4 in SSW 6.9 mph 14.5 mph 92% 0 in 0 W/m2
21:28 55.2 °F 52.5 °F 30.4 in SSW 6 mph 14.5 mph 91% 0 in 0 W/m2
21:33 55.2 °F 52.5 °F 30.4 in SSW 5.4 mph 11.4 mph 91% 0 in 0 W/m2
21:38 55.2 °F 52.5 °F 30.4 in SSW 5.4 mph 12.1 mph 91% 0 in 0 W/m2
21:43 55.2 °F 52.5 °F 30.4 in SW 8.3 mph 12.1 mph 91% 0 in 0 W/m2
21:48 55 °F 52.2 °F 30.4 in SW 8.3 mph 12.1 mph 90% 0 in 0 W/m2
21:53 55 °F 52.2 °F 30.4 in SSW 8.3 mph 13.6 mph 90% 0 in 0 W/m2
21:58 55 °F 52.2 °F 30.4 in SW 8.3 mph 14.5 mph 90% 0 in 0 W/m2
22:03 54.9 °F 51.6 °F 30.4 in SW 7.6 mph 15.2 mph 89% 0 in 0 W/m2
22:08 54.9 °F 51.6 °F 30.4 in SW 9.2 mph 15.2 mph 89% 0 in 0 W/m2
22:13 54.9 °F 51.6 °F 30.4 in SW 8.3 mph 14.5 mph 89% 0 in 0 W/m2
22:18 54.7 °F 51.4 °F 30.4 in SW 8.3 mph 15.2 mph 89% 0 in 0 W/m2
22:23 54.7 °F 51.4 °F 30.4 in SW 7.6 mph 15.2 mph 89% 0 in 0 W/m2
22:28 54.7 °F 51.4 °F 30.4 in SW 9.8 mph 15.9 mph 89% 0 in 0 W/m2
22:33 54.7 °F 51.3 °F 30.4 in SW 7.6 mph 15.9 mph 88% 0 in 0 W/m2
22:38 54.7 °F 51.4 °F 30.4 in SW 8.3 mph 14.5 mph 89% 0 in 0 W/m2
22:43 54.7 °F 51.4 °F 30.4 in SW 9.8 mph 16.8 mph 89% 0 in 0 W/m2
22:48 54.7 °F 51.4 °F 30.4 in SW 10.7 mph 16.8 mph 89% 0 in 0 W/m2
22:53 54.9 °F 51.1 °F 30.4 in SW 8.3 mph 17.4 mph 87% 0 in 0 W/m2
22:58 54.9 °F 51.1 °F 30.4 in SW 8.3 mph 17.4 mph 87% 0 in 0 W/m2
23:03 54.5 °F 50.4 °F 30.4 in SW 6.9 mph 17.4 mph 86% 0 in 0 W/m2
23:08 54.3 °F 49.8 °F 30.4 in WSW 6.9 mph 13.6 mph 85% 0 in 0 W/m2
23:13 54.3 °F 49.8 °F 30.4 in West 6 mph 13 mph 85% 0 in 0 W/m2
23:18 54.3 °F 49.6 °F 30.4 in WSW 6.9 mph 13 mph 84% 0 in 0 W/m2
23:23 54.1 °F 49.5 °F 30.4 in WSW 6 mph 13 mph 84% 0 in 0 W/m2
23:28 54.1 °F 49.5 °F 30.4 in WSW 5.4 mph 12.1 mph 84% 0 in 0 W/m2
23:33 54.1 °F 49.5 °F 30.4 in WSW 6 mph 15.2 mph 84% 0 in 0 W/m2
23:38 54 °F 49.3 °F 30.4 in West 4.5 mph 15.2 mph 84% 0 in 0 W/m2
23:43 54 °F 49.3 °F 30.4 in WSW 8.3 mph 11.4 mph 84% 0 in 0 W/m2
23:48 54 °F 49.3 °F 30.4 in WSW 6 mph 11.4 mph 84% 0 in 0 W/m2
23:53 54 °F 49.3 °F 30.4 in WSW 5.4 mph 11.4 mph 84% 0 in 0 W/m2
23:58 54 °F 49.3 °F 30.4 in WSW 1.6 mph 9.8 mph 84% 0 in 0 W/m2
Northern Hawkes Bay. New Zealand Historic Data
Compliments of Weather Underground - 2.25 mb